createdAt,value
2019-02-11T00:02:13.771Z,0.30
2019-02-11T00:04:54.189Z,0.40
2019-02-11T00:07:34.679Z,0.40
2019-02-11T00:10:15.537Z,0.40
2019-02-11T00:12:56.086Z,0.30
2019-02-11T00:15:37.078Z,0.47
2019-02-11T00:18:17.858Z,0.40
2019-02-11T00:20:59.006Z,0.40
2019-02-11T00:23:38.332Z,0.40
2019-02-11T00:26:26.150Z,0.30
2019-02-11T00:29:13.955Z,0.80
2019-02-11T00:32:01.807Z,0.30
2019-02-11T00:34:49.614Z,0.30
2019-02-11T00:37:37.530Z,0.30
2019-02-11T00:40:25.398Z,0.40
2019-02-11T00:43:18.902Z,0.40
2019-02-11T00:46:02.783Z,0.40
2019-02-11T00:48:50.601Z,0.40
2019-02-11T00:51:19.076Z,0.40
2019-02-11T00:54:06.952Z,0.30
2019-02-11T00:56:54.753Z,0.40
2019-02-11T00:59:42.573Z,0.30
2019-02-11T01:02:30.399Z,0.30
2019-02-11T01:05:18.197Z,0.67
2019-02-11T01:08:06.037Z,0.40
2019-02-11T01:10:53.833Z,0.40
2019-02-11T01:13:41.661Z,0.40
2019-02-11T01:16:29.470Z,0.37
2019-02-11T01:19:17.300Z,0.40
2019-02-11T01:22:05.120Z,0.50
2019-02-11T01:24:45.586Z,0.40
2019-02-11T01:27:26.682Z,0.50
2019-02-11T01:30:07.614Z,0.40
2019-02-11T01:32:48.484Z,0.53
2019-02-11T01:35:28.796Z,0.40
2019-02-11T01:38:09.800Z,0.30
2019-02-11T01:40:50.916Z,0.47
2019-02-11T01:43:36.098Z,0.40
2019-02-11T01:46:14.163Z,0.43
2019-02-11T01:48:55.285Z,2.72
2019-02-11T01:51:35.797Z,0.43
2019-02-11T01:54:16.193Z,0.40
2019-02-11T01:56:56.721Z,0.37
2019-02-11T01:59:37.111Z,0.50
2019-02-11T02:02:05.597Z,0.70
2019-02-11T02:04:34.043Z,0.30
2019-02-11T02:07:21.875Z,0.40
2019-02-11T02:10:30.397Z,0.40
2019-02-11T02:13:18.221Z,0.30
2019-02-11T02:16:06.027Z,0.50
2019-02-11T02:18:53.854Z,0.40
2019-02-11T02:21:41.662Z,0.40
2019-02-11T02:24:29.542Z,0.30
2019-02-11T02:27:17.386Z,0.30
2019-02-11T02:30:25.905Z,0.40
2019-02-11T02:33:13.740Z,0.40
2019-02-11T02:36:01.628Z,0.50
2019-02-11T02:38:49.547Z,0.40
2019-02-11T02:41:37.399Z,0.30
2019-02-11T02:44:17.863Z,0.50
2019-02-11T02:46:58.754Z,0.40
2019-02-11T02:49:39.103Z,0.37
2019-02-11T02:52:19.673Z,0.40
2019-02-11T02:55:00.670Z,0.40
2019-02-11T02:57:41.066Z,0.37
2019-02-11T03:00:22.214Z,0.30
2019-02-11T03:03:03.042Z,0.50
2019-02-11T03:05:44.094Z,0.60
2019-02-11T03:08:25.095Z,0.47
2019-02-11T03:11:05.379Z,0.60
2019-02-11T03:13:45.840Z,0.47
2019-02-11T03:16:26.707Z,0.40
2019-02-11T03:19:07.736Z,0.37
2019-02-11T03:21:48.128Z,0.40
2019-02-11T03:24:29.406Z,0.40
2019-02-11T03:27:10.102Z,0.30
2019-02-11T03:29:50.554Z,0.40
2019-02-11T03:32:31.476Z,0.40
2019-02-11T03:35:12.516Z,0.43
2019-02-11T03:37:53.344Z,0.53
2019-02-11T03:40:34.356Z,0.40
2019-02-11T03:43:14.733Z,0.47
2019-02-11T03:45:55.218Z,0.50
2019-02-11T03:48:35.906Z,0.50
2019-02-11T03:51:16.905Z,0.40
2019-02-11T03:53:55.634Z,0.40
2019-02-11T03:56:43.525Z,0.88
2019-02-11T03:59:31.393Z,0.40
2019-02-11T04:02:19.308Z,0.50
2019-02-11T04:05:07.287Z,0.70
2019-02-11T04:07:55.115Z,0.40
2019-02-11T04:10:42.918Z,0.40
2019-02-11T04:13:30.754Z,0.40
2019-02-11T04:16:18.645Z,0.30
2019-02-11T04:19:06.490Z,0.40
2019-02-11T04:22:13.616Z,0.43
2019-02-11T04:27:40.717Z,0.40
2019-02-11T04:30:09.952Z,0.40
2019-02-11T04:32:38.478Z,0.50
2019-02-11T04:35:07.098Z,0.43
2019-02-11T04:37:35.638Z,0.47
2019-02-11T04:40:23.745Z,0.40
2019-02-11T04:43:11.676Z,0.50
2019-02-11T04:45:59.520Z,0.50
2019-02-11T04:48:47.314Z,0.40
2019-02-11T04:51:35.145Z,0.50
2019-02-11T04:54:22.938Z,0.40
2019-02-11T04:57:10.787Z,0.50
2019-02-11T04:59:58.649Z,0.43
2019-02-11T05:02:46.526Z,0.95
2019-02-11T05:05:34.315Z,0.83
2019-02-11T05:08:22.177Z,0.80
2019-02-11T05:11:10.090Z,0.60
2019-02-11T05:13:57.957Z,0.50
2019-02-11T05:16:45.806Z,0.70
2019-02-11T05:19:33.634Z,0.67
2019-02-11T05:22:21.515Z,0.70
2019-02-11T05:25:09.432Z,0.90
2019-02-11T05:27:57.303Z,0.80
2019-02-11T05:30:45.191Z,1.00
2019-02-11T05:33:33.050Z,0.50
2019-02-11T05:36:20.909Z,0.63
2019-02-11T05:39:08.744Z,0.60
2019-02-11T05:41:37.184Z,0.60
2019-02-11T05:44:25.034Z,0.63
2019-02-11T05:47:12.901Z,0.70
2019-02-11T05:50:00.791Z,0.87
2019-02-11T05:52:48.714Z,1.17
2019-02-11T05:55:36.616Z,1.12
2019-02-11T05:58:24.400Z,0.90
2019-02-11T06:01:12.241Z,0.90
2019-02-11T06:03:52.685Z,0.90
2019-02-11T06:06:33.746Z,1.00
2019-02-11T06:09:14.780Z,1.23
2019-02-11T06:11:55.856Z,1.00
2019-02-11T06:14:36.933Z,1.10
2019-02-11T06:17:18.015Z,1.00
2019-02-11T06:19:58.567Z,0.90
2019-02-11T06:22:39.051Z,1.10
2019-02-11T06:25:17.844Z,11.57
2019-02-11T06:28:05.641Z,1.30
2019-02-11T06:30:53.543Z,1.10
2019-02-11T06:33:41.448Z,1.07
2019-02-11T06:36:29.347Z,1.00
2019-02-11T06:39:17.217Z,1.23
2019-02-11T06:42:05.055Z,0.90
2019-02-11T06:44:52.865Z,0.90
2019-02-11T06:47:40.758Z,0.67
2019-02-11T06:50:28.574Z,1.17
2019-02-11T06:53:16.404Z,1.10
2019-02-11T06:56:04.226Z,1.03
2019-02-11T06:58:45.235Z,0.90
2019-02-11T07:01:25.730Z,1.00
2019-02-11T07:04:06.838Z,1.10
2019-02-11T07:06:47.534Z,1.20
2019-02-11T07:09:28.754Z,0.87
2019-02-11T07:12:09.399Z,0.90
2019-02-11T07:14:50.598Z,1.00
2019-02-11T07:17:31.623Z,1.50
2019-02-11T07:20:12.124Z,1.37
2019-02-11T07:22:52.374Z,1.47
2019-02-11T07:25:33.335Z,1.60
2019-02-11T07:28:13.561Z,1.50
2019-02-11T07:30:54.720Z,1.20
2019-02-11T07:33:35.759Z,1.47
2019-02-11T07:36:17.986Z,2.12
2019-02-11T07:38:58.949Z,1.43
2019-02-11T07:41:41.826Z,1.60
2019-02-11T07:44:23.810Z,1.60
2019-02-11T07:47:04.406Z,1.63
2019-02-11T07:49:45.549Z,1.70
2019-02-11T07:52:27.128Z,2.37
2019-02-11T07:55:07.914Z,1.50
2019-02-11T07:57:48.267Z,2.23
2019-02-11T08:00:28.939Z,2.00
2019-02-11T08:03:07.666Z,1.87
2019-02-11T08:05:55.578Z,1.80
2019-02-11T08:08:43.396Z,2.03
2019-02-11T08:11:23.718Z,1.82
2019-02-11T08:14:04.290Z,1.40
2019-02-11T08:16:45.559Z,1.47
2019-02-11T08:19:26.699Z,1.43
2019-02-11T08:22:07.499Z,1.43
2019-02-11T08:24:47.898Z,1.50
2019-02-11T08:27:28.458Z,1.50
2019-02-11T08:30:09.382Z,1.17
2019-02-11T08:32:50.620Z,1.13
2019-02-11T08:35:31.168Z,1.77
2019-02-11T08:38:11.948Z,1.30
2019-02-11T08:40:53.008Z,1.33
2019-02-11T08:43:34.091Z,1.20
2019-02-11T08:46:14.840Z,1.07
2019-02-11T08:48:55.507Z,1.00
2019-02-11T08:51:35.982Z,0.97
2019-02-11T08:54:16.865Z,0.80
2019-02-11T08:56:58.018Z,1.30
2019-02-11T08:59:38.688Z,1.13
2019-02-11T09:02:19.794Z,0.80
2019-02-11T09:05:00.562Z,1.10
2019-02-11T09:07:41.003Z,1.23
2019-02-11T09:10:21.244Z,1.70
2019-02-11T09:13:01.817Z,1.13
2019-02-11T09:15:42.890Z,1.40
2019-02-11T09:18:23.775Z,1.70
2019-02-11T09:21:05.766Z,1.20
2019-02-11T09:23:46.467Z,1.17
2019-02-11T09:26:26.813Z,1.17
2019-02-11T09:29:07.495Z,1.20
2019-02-11T09:31:48.364Z,1.50
2019-02-11T09:34:29.311Z,1.70
2019-02-11T09:37:10.522Z,1.07
2019-02-11T09:39:51.757Z,1.53
2019-02-11T09:42:32.913Z,1.30
2019-02-11T09:45:13.298Z,1.50
2019-02-11T09:47:54.438Z,1.77
2019-02-11T09:50:34.902Z,3.05
2019-02-11T09:53:22.716Z,1.40
2019-02-11T09:56:10.631Z,1.40
2019-02-11T09:58:58.535Z,1.43
2019-02-11T10:01:46.368Z,1.50
2019-02-11T10:04:34.271Z,1.60
2019-02-11T10:07:22.060Z,1.60
2019-02-11T10:10:10.350Z,2.50
2019-02-11T10:12:58.158Z,1.80
2019-02-11T10:15:46.056Z,1.40
2019-02-11T10:18:33.938Z,1.40
2019-02-11T10:21:21.853Z,1.30
2019-02-11T10:24:09.757Z,1.30
2019-02-11T10:26:57.615Z,1.50
2019-02-11T10:29:38.521Z,1.20
2019-02-11T10:32:19.387Z,1.20
2019-02-11T10:34:59.923Z,1.37
2019-02-11T10:37:40.487Z,2.10
2019-02-11T10:40:21.015Z,1.13
2019-02-11T10:43:01.392Z,1.00
2019-02-11T10:45:42.191Z,1.10
2019-02-11T10:48:23.305Z,1.23
2019-02-11T10:51:03.655Z,1.93
2019-02-11T10:53:44.678Z,1.10
2019-02-11T10:56:25.185Z,1.47
2019-02-11T10:59:05.692Z,2.13
2019-02-11T11:01:46.011Z,1.03
2019-02-11T11:04:26.421Z,1.20
2019-02-11T11:07:06.835Z,1.50
2019-02-11T11:09:47.091Z,1.20
2019-02-11T11:12:27.751Z,2.90
2019-02-11T11:15:07.989Z,1.87
2019-02-11T11:17:55.965Z,1.50
2019-02-11T11:20:43.809Z,1.77
2019-02-11T11:23:31.694Z,1.80
2019-02-11T11:26:19.502Z,2.07
2019-02-11T11:29:07.399Z,2.53
2019-02-11T11:31:55.224Z,1.13
2019-02-11T11:34:43.041Z,1.90
2019-02-11T11:37:30.938Z,1.60
2019-02-11T11:40:39.465Z,2.00
2019-02-11T11:43:27.295Z,1.90
2019-02-11T11:46:15.208Z,3.10
2019-02-11T11:49:03.002Z,2.47
2019-02-11T11:51:50.847Z,2.20
2019-02-11T11:54:38.729Z,2.50
2019-02-11T11:57:19.850Z,3.05
2019-02-11T12:00:01.034Z,2.30
2019-02-11T12:02:59.573Z,2.50
2019-02-11T12:05:24.362Z,2.60
2019-02-11T12:08:05.385Z,2.50
2019-02-11T12:10:45.957Z,3.10
2019-02-11T12:13:26.878Z,2.50
2019-02-11T12:16:07.459Z,2.62
2019-02-11T12:18:46.248Z,3.07
2019-02-11T12:21:34.152Z,2.60
2019-02-11T12:24:22.072Z,2.27
2019-02-11T12:27:10.052Z,2.70
2019-02-11T12:29:57.894Z,2.90
2019-02-11T12:32:45.723Z,2.43
2019-02-11T12:35:33.594Z,3.40
2019-02-11T12:38:21.509Z,3.30
2019-02-11T12:41:09.343Z,3.03
2019-02-11T12:43:57.250Z,3.17
2019-02-11T12:46:45.100Z,3.40
2019-02-11T12:49:32.927Z,3.10
2019-02-11T12:52:20.721Z,3.03
2019-02-11T12:55:29.281Z,3.57
2019-02-11T12:58:17.187Z,3.30
2019-02-11T13:01:05.171Z,3.03
2019-02-11T13:03:46.008Z,3.30
2019-02-11T13:06:26.537Z,2.53
2019-02-11T13:09:07.260Z,3.50
2019-02-11T13:11:47.688Z,3.50
2019-02-11T13:14:28.861Z,3.10
2019-02-11T13:17:15.482Z,3.87
2019-02-11T13:20:07.357Z,3.40
2019-02-11T13:22:34.301Z,3.10
2019-02-11T13:25:15.102Z,2.53
2019-02-11T13:27:56.160Z,3.40
2019-02-11T13:30:36.773Z,2.53
2019-02-11T13:33:18.381Z,2.70
2019-02-11T13:35:59.538Z,2.90
2019-02-11T13:38:40.745Z,3.23
2019-02-11T13:41:21.222Z,3.17
2019-02-11T13:44:01.642Z,3.30
2019-02-11T13:46:42.546Z,3.03
2019-02-11T13:49:23.341Z,2.63
2019-02-11T13:52:04.210Z,3.33
2019-02-11T13:54:44.757Z,2.67
2019-02-11T13:57:25.148Z,3.20
2019-02-11T14:00:07.204Z,3.70
2019-02-11T14:02:48.197Z,3.80
2019-02-11T14:05:29.283Z,4.57
2019-02-11T14:08:11.149Z,4.23
2019-02-11T14:10:52.353Z,3.98
2019-02-11T14:13:32.963Z,3.47
2019-02-11T14:16:13.260Z,4.00
2019-02-11T14:18:53.833Z,6.90
2019-02-11T14:21:32.843Z,4.27
2019-02-11T14:24:20.804Z,5.60
2019-02-11T14:27:08.688Z,3.30
2019-02-11T14:29:56.560Z,4.87
2019-02-11T14:32:44.515Z,3.90
2019-02-11T14:35:32.494Z,5.10
2019-02-11T14:38:20.445Z,8.40
2019-02-11T14:41:08.297Z,4.10
2019-02-11T14:43:56.218Z,7.63
2019-02-11T14:46:24.781Z,7.20
2019-02-11T14:48:53.313Z,3.60
2019-02-11T14:51:41.228Z,4.10
2019-02-11T14:54:29.277Z,18.98
2019-02-11T14:57:17.112Z,8.70
2019-02-11T14:59:57.693Z,5.43
2019-02-11T15:02:38.837Z,5.37
2019-02-11T15:05:19.931Z,2.90
2019-02-11T15:08:01.040Z,7.83
2019-02-11T15:10:29.523Z,10.40
2019-02-11T15:13:17.427Z,5.70
2019-02-11T15:16:05.324Z,3.15
2019-02-11T15:18:53.229Z,4.70
2019-02-11T15:21:41.048Z,2.93
2019-02-11T15:24:28.968Z,3.03
2019-02-11T15:27:17.469Z,2.70
2019-02-11T15:30:27.057Z,3.63
2019-02-11T15:33:14.847Z,4.53
2019-02-11T15:35:55.595Z,3.70
2019-02-11T15:38:36.198Z,4.03
2019-02-11T15:41:16.777Z,7.47
2019-02-11T15:43:57.920Z,4.80
2019-02-11T15:46:38.664Z,3.90
2019-02-11T15:49:19.001Z,4.10
2019-02-11T15:51:59.668Z,3.10
2019-02-11T15:54:40.397Z,1.77
2019-02-11T15:57:20.895Z,2.87
2019-02-11T16:00:01.309Z,2.23
2019-02-11T16:02:42.279Z,2.40
2019-02-11T16:05:23.054Z,3.40
2019-02-11T16:08:03.760Z,3.47
2019-02-11T16:10:44.502Z,2.03
2019-02-11T16:13:25.792Z,2.77
2019-02-11T16:16:06.983Z,2.90
2019-02-11T16:18:51.833Z,4.87
2019-02-11T16:21:29.939Z,3.87
2019-02-11T16:24:11.148Z,3.40
2019-02-11T16:26:51.527Z,4.50
2019-02-11T16:29:32.388Z,2.90
2019-02-11T16:32:13.599Z,3.17
2019-02-11T16:34:53.925Z,3.17
2019-02-11T16:37:34.385Z,2.43
2019-02-11T16:40:15.021Z,3.90
2019-02-11T16:42:55.366Z,2.30
2019-02-11T16:45:35.687Z,3.30
2019-02-11T16:48:16.092Z,3.07
2019-02-11T16:50:56.818Z,2.07
2019-02-11T16:53:37.383Z,3.70
2019-02-11T16:56:18.627Z,3.40
2019-02-11T16:58:59.081Z,7.60
2019-02-11T17:01:39.535Z,10.28
2019-02-11T17:04:20.490Z,6.77
2019-02-11T17:07:00.822Z,4.50
2019-02-11T17:09:41.531Z,3.83
2019-02-11T17:12:22.372Z,4.10
2019-02-11T17:15:02.828Z,2.97
2019-02-11T17:17:43.890Z,2.50
2019-02-11T17:20:25.140Z,2.60
2019-02-11T17:23:06.295Z,2.70
2019-02-11T17:25:46.925Z,3.00
2019-02-11T17:28:27.661Z,2.90
2019-02-11T17:31:08.618Z,3.27
2019-02-11T17:33:49.483Z,2.33
2019-02-11T17:36:30.599Z,2.40
2019-02-11T17:39:11.785Z,2.40
2019-02-11T17:41:52.778Z,1.90
2019-02-11T17:44:33.602Z,2.90
2019-02-11T17:47:13.884Z,2.10
2019-02-11T17:49:55.001Z,1.50
2019-02-11T17:52:23.831Z,3.57
2019-02-11T17:55:32.396Z,2.00
2019-02-11T17:58:20.271Z,2.50
2019-02-11T18:01:08.223Z,2.60
2019-02-11T18:03:56.053Z,1.97
2019-02-11T18:06:43.945Z,2.30
2019-02-11T18:09:24.661Z,1.80
2019-02-11T18:12:05.594Z,2.02
2019-02-11T18:14:46.156Z,2.23
2019-02-11T18:17:27.108Z,1.97
2019-02-11T18:20:07.771Z,4.53
2019-02-11T18:22:48.103Z,10.83
2019-02-11T18:25:28.574Z,3.95
2019-02-11T18:28:09.008Z,2.43
2019-02-11T18:30:50.140Z,2.50
2019-02-11T18:33:31.109Z,2.40
2019-02-11T18:36:11.865Z,2.87
2019-02-11T18:38:53.075Z,4.40
2019-02-11T18:41:33.845Z,3.20
2019-02-11T18:44:14.394Z,4.00
2019-02-11T18:46:55.011Z,2.77
2019-02-11T18:49:35.998Z,2.67
2019-02-11T18:52:16.348Z,2.30
2019-02-11T18:54:57.194Z,2.20
2019-02-11T18:57:37.678Z,1.53
2019-02-11T19:00:21.417Z,1.67
2019-02-11T19:03:01.917Z,2.40
2019-02-11T19:05:43.055Z,1.92
2019-02-11T19:08:24.243Z,2.17
2019-02-11T19:11:03.365Z,2.87
2019-02-11T19:13:51.290Z,2.17
2019-02-11T19:16:39.138Z,2.00
2019-02-11T19:19:27.010Z,2.10
2019-02-11T19:21:55.491Z,2.25
2019-02-11T19:24:43.401Z,2.30
2019-02-11T19:27:31.266Z,3.00
2019-02-11T19:30:38.427Z,1.77
2019-02-11T19:33:06.975Z,3.67
2019-02-11T19:35:54.898Z,4.17
2019-02-11T19:38:42.765Z,2.30
2019-02-11T19:41:30.678Z,3.47
2019-02-11T19:44:18.487Z,3.40
2019-02-11T19:47:06.450Z,2.37
2019-02-11T19:49:54.376Z,3.47
2019-02-11T19:52:42.265Z,2.67
2019-02-11T19:55:30.153Z,2.37
2019-02-11T19:58:17.998Z,2.53
2019-02-11T20:01:05.873Z,1.80
2019-02-11T20:03:53.712Z,3.07
2019-02-11T20:06:41.537Z,3.27
2019-02-11T20:09:32.830Z,2.80
2019-02-11T20:12:18.924Z,3.80
2019-02-11T20:15:27.547Z,3.30
2019-02-11T20:18:15.349Z,3.67
2019-02-11T20:21:03.185Z,3.17
2019-02-11T20:23:51.076Z,3.13
2019-02-11T20:29:00.552Z,3.90
2019-02-11T20:31:41.028Z,3.23
2019-02-11T20:34:22.129Z,5.13
2019-02-11T20:37:02.612Z,2.93
2019-02-11T20:39:43.836Z,4.23
2019-02-11T20:42:24.358Z,5.40
2019-02-11T20:45:04.670Z,3.63
2019-02-11T20:47:43.447Z,5.90
2019-02-11T20:50:31.362Z,4.47
2019-02-11T20:53:19.256Z,3.00
2019-02-11T20:56:07.237Z,5.87
2019-02-11T20:58:55.119Z,3.50
2019-02-11T21:01:42.979Z,3.85
2019-02-11T21:04:30.978Z,3.97
2019-02-11T21:07:18.857Z,3.87
2019-02-11T21:10:27.430Z,4.17
2019-02-11T21:13:15.343Z,4.22
2019-02-11T21:16:03.136Z,3.37
2019-02-11T21:18:43.759Z,4.73
2019-02-11T21:21:24.815Z,4.73
2019-02-11T21:24:05.224Z,3.80
2019-02-11T21:26:45.867Z,4.20
2019-02-11T21:29:14.383Z,4.03
2019-02-11T21:32:02.216Z,4.43
2019-02-11T21:34:50.014Z,4.47
2019-02-11T21:37:49.539Z,4.87
2019-02-11T21:40:27.384Z,4.90
2019-02-11T21:43:15.220Z,4.47
2019-02-11T21:46:03.100Z,6.57
2019-02-11T21:48:51.003Z,3.80
2019-02-11T21:51:38.802Z,4.77
2019-02-11T21:54:26.689Z,4.70
2019-02-11T22:00:27.267Z,2.97
2019-02-11T22:03:08.054Z,2.90
2019-02-11T22:05:48.531Z,2.98
2019-02-11T22:08:29.587Z,2.67
2019-02-11T22:11:10.331Z,3.12
2019-02-11T22:13:50.941Z,2.90
2019-02-11T22:16:31.549Z,2.50
2019-02-11T22:19:11.945Z,3.40
2019-02-11T22:21:52.433Z,2.40
2019-02-11T22:24:33.434Z,2.37
2019-02-11T22:27:13.820Z,2.55
2019-02-11T22:29:54.953Z,2.50
2019-02-11T22:32:36.017Z,2.83
2019-02-11T22:35:16.944Z,2.40
2019-02-11T22:37:57.581Z,2.05
2019-02-11T22:40:38.221Z,2.20
2019-02-11T22:43:18.596Z,2.10
2019-02-11T22:45:59.576Z,1.17
2019-02-11T22:48:39.845Z,1.30
2019-02-11T22:51:20.168Z,1.30
2019-02-11T22:54:01.133Z,1.60
2019-02-11T22:56:42.052Z,1.23
2019-02-11T22:59:23.093Z,1.23
2019-02-11T23:02:03.982Z,1.30
2019-02-11T23:04:44.354Z,2.13
2019-02-11T23:07:24.916Z,2.15
2019-02-11T23:10:05.992Z,1.83
2019-02-11T23:12:44.870Z,2.50
2019-02-11T23:15:32.696Z,3.23
2019-02-11T23:18:20.502Z,3.63
2019-02-11T23:21:08.333Z,3.40
2019-02-11T23:26:26.392Z,2.13
2019-02-11T23:29:07.452Z,2.77
2019-02-11T23:31:48.192Z,2.83
2019-02-11T23:34:28.493Z,3.00
2019-02-11T23:37:09.305Z,2.90
2019-02-11T23:39:49.603Z,3.90
2019-02-11T23:42:30.091Z,2.93
2019-02-11T23:45:10.437Z,3.60
2019-02-11T23:47:50.845Z,4.00
2019-02-11T23:50:31.695Z,4.97
2019-02-11T23:53:12.165Z,3.60
2019-02-11T23:55:53.189Z,3.77
2019-02-11T23:58:33.854Z,4.10
